sensor_id;sensor_type;location;lat;lon;timestamp;noise_LAeq;noise_LA_min;noise_LA_max;noise_LA01;noise_LA95
61270;Laerm;47150;53.032;8.960;2022-09-23T00:01:04;29.83;28.44;30.92;;
61270;Laerm;47150;53.032;8.960;2022-09-23T00:03:32;29.81;28.70;30.98;;
61270;Laerm;47150;53.032;8.960;2022-09-23T00:06:12;29.77;28.49;30.75;;
61270;Laerm;47150;53.032;8.960;2022-09-23T00:08:39;29.75;28.59;30.85;;
61270;Laerm;47150;53.032;8.960;2022-09-23T00:11:07;29.74;28.63;30.82;;
61270;Laerm;47150;53.032;8.960;2022-09-23T00:13:34;29.70;28.33;30.76;;
61270;Laerm;47150;53.032;8.960;2022-09-23T00:16:07;29.67;28.57;30.75;;
61270;Laerm;47150;53.032;8.960;2022-09-23T00:18:33;29.65;28.46;30.75;;
61270;Laerm;47150;53.032;8.960;2022-09-23T00:21:08;29.65;28.44;30.64;;
61270;Laerm;47150;53.032;8.960;2022-09-23T00:23:35;29.66;28.46;30.67;;
61270;Laerm;47150;53.032;8.960;2022-09-23T00:26:03;29.65;28.54;30.75;;
61270;Laerm;47150;53.032;8.960;2022-09-23T00:28:30;29.66;28.42;30.71;;
61270;Laerm;47150;53.032;8.960;2022-09-23T00:31:00;29.70;28.57;31.02;;
61270;Laerm;47150;53.032;8.960;2022-09-23T00:33:25;29.71;28.66;31.20;;
61270;Laerm;47150;53.032;8.960;2022-09-23T00:36:01;29.73;28.68;30.76;;
61270;Laerm;47150;53.032;8.960;2022-09-23T00:38:28;29.73;28.41;30.85;;
61270;Laerm;47150;53.032;8.960;2022-09-23T00:40:54;29.71;28.34;30.89;;
61270;Laerm;47150;53.032;8.960;2022-09-23T00:43:41;29.69;28.24;30.71;;
61270;Laerm;47150;53.032;8.960;2022-09-23T00:46:11;29.68;28.58;30.84;;
61270;Laerm;47150;53.032;8.960;2022-09-23T00:48:41;29.68;28.43;30.81;;
61270;Laerm;47150;53.032;8.960;2022-09-23T00:51:12;29.73;28.51;30.89;;
61270;Laerm;47150;53.032;8.960;2022-09-23T00:53:43;29.76;28.45;30.88;;
61270;Laerm;47150;53.032;8.960;2022-09-23T00:56:11;29.76;28.40;31.02;;
61270;Laerm;47150;53.032;8.960;2022-09-23T00:58:42;29.74;28.45;30.88;;
61270;Laerm;47150;53.032;8.960;2022-09-23T01:01:11;29.73;28.63;30.78;;
61270;Laerm;47150;53.032;8.960;2022-09-23T01:03:40;29.70;28.49;30.81;;
61270;Laerm;47150;53.032;8.960;2022-09-23T01:06:07;29.65;28.35;30.73;;
61270;Laerm;47150;53.032;8.960;2022-09-23T01:08:34;29.65;28.55;30.74;;
61270;Laerm;47150;53.032;8.960;2022-09-23T01:13:59;29.69;28.44;30.97;;
61270;Laerm;47150;53.032;8.960;2022-09-23T01:16:43;29.73;28.40;30.95;;
61270;Laerm;47150;53.032;8.960;2022-09-23T01:29:20;29.70;28.52;30.90;;
61270;Laerm;47150;53.032;8.960;2022-09-23T01:31:33;29.70;28.45;30.79;;
61270;Laerm;47150;53.032;8.960;2022-09-23T01:34:55;29.69;28.63;30.97;;
61270;Laerm;47150;53.032;8.960;2022-09-23T01:37:51;29.71;28.44;31.01;;
61270;Laerm;47150;53.032;8.960;2022-09-23T01:43:15;29.71;28.35;30.88;;
61270;Laerm;47150;53.032;8.960;2022-09-23T01:45:46;29.70;28.50;30.70;;
61270;Laerm;47150;53.032;8.960;2022-09-23T01:48:26;29.67;28.44;30.82;;
61270;Laerm;47150;53.032;8.960;2022-09-23T01:51:14;29.66;28.51;30.84;;
61270;Laerm;47150;53.032;8.960;2022-09-23T01:54:09;29.62;28.36;30.80;;
61270;Laerm;47150;53.032;8.960;2022-09-23T01:56:48;29.63;28.42;30.77;;
61270;Laerm;47150;53.032;8.960;2022-09-23T01:59:23;29.61;28.31;30.69;;
61270;Laerm;47150;53.032;8.960;2022-09-23T02:02:01;29.60;28.52;30.81;;
61270;Laerm;47150;53.032;8.960;2022-09-23T02:04:44;29.59;28.56;30.61;;
61270;Laerm;47150;53.032;8.960;2022-09-23T02:07:39;29.61;28.54;30.81;;
61270;Laerm;47150;53.032;8.960;2022-09-23T02:10:35;29.65;28.30;30.89;;
61270;Laerm;47150;53.032;8.960;2022-09-23T02:13:18;29.65;28.46;30.70;;
61270;Laerm;47150;53.032;8.960;2022-09-23T02:15:52;29.65;28.56;30.82;;
61270;Laerm;47150;53.032;8.960;2022-09-23T02:18:26;29.64;28.39;30.82;;
61270;Laerm;47150;53.032;8.960;2022-09-23T02:21:02;29.65;28.26;30.70;;
61270;Laerm;47150;53.032;8.960;2022-09-23T02:23:47;29.64;28.20;30.72;;
61270;Laerm;47150;53.032;8.960;2022-09-23T02:26:22;29.62;28.45;30.82;;
61270;Laerm;47150;53.032;8.960;2022-09-23T02:29:10;29.61;28.35;30.90;;
61270;Laerm;47150;53.032;8.960;2022-09-23T02:34:45;29.59;28.30;30.68;;
61270;Laerm;47150;53.032;8.960;2022-09-23T02:37:40;29.58;28.28;30.62;;
61270;Laerm;47150;53.032;8.960;2022-09-23T02:40:21;29.58;28.50;30.92;;
61270;Laerm;47150;53.032;8.960;2022-09-23T02:43:20;29.58;28.31;30.74;;
61270;Laerm;47150;53.032;8.960;2022-09-23T02:45:48;29.56;28.35;30.86;;
61270;Laerm;47150;53.032;8.960;2022-09-23T02:48:22;29.56;28.31;30.70;;
61270;Laerm;47150;53.032;8.960;2022-09-23T02:50:49;29.58;28.34;30.82;;
61270;Laerm;47150;53.032;8.960;2022-09-23T02:53:15;29.62;28.50;30.82;;
61270;Laerm;47150;53.032;8.960;2022-09-23T02:55:41;29.64;28.48;30.65;;
61270;Laerm;47150;53.032;8.960;2022-09-23T02:58:11;29.66;28.59;30.70;;
61270;Laerm;47150;53.032;8.960;2022-09-23T03:06:31;29.66;28.45;30.70;;
61270;Laerm;47150;53.032;8.960;2022-09-23T03:09:20;29.65;28.54;30.88;;
61270;Laerm;47150;53.032;8.960;2022-09-23T03:11:58;29.65;28.53;30.79;;
61270;Laerm;47150;53.032;8.960;2022-09-23T03:20:52;29.69;28.49;30.87;;
61270;Laerm;47150;53.032;8.960;2022-09-23T03:23:26;29.71;28.40;31.06;;
61270;Laerm;47150;53.032;8.960;2022-09-23T03:25:57;29.73;28.45;30.77;;
61270;Laerm;47150;53.032;8.960;2022-09-23T03:28:25;29.74;28.61;30.81;;
61270;Laerm;47150;53.032;8.960;2022-09-23T03:30:53;29.71;28.47;30.79;;
61270;Laerm;47150;53.032;8.960;2022-09-23T03:33:24;29.71;28.36;30.79;;
61270;Laerm;47150;53.032;8.960;2022-09-23T03:35:58;29.72;28.50;30.80;;
61270;Laerm;47150;53.032;8.960;2022-09-23T03:38:48;29.74;28.51;31.10;;
61270;Laerm;47150;53.032;8.960;2022-09-23T03:41:26;29.74;28.60;30.80;;
61270;Laerm;47150;53.032;8.960;2022-09-23T03:43:56;29.77;28.67;30.85;;
61270;Laerm;47150;53.032;8.960;2022-09-23T03:46:26;29.77;28.58;30.97;;
61270;Laerm;47150;53.032;8.960;2022-09-23T03:49:03;29.80;28.67;31.01;;
61270;Laerm;47150;53.032;8.960;2022-09-23T03:51:33;29.79;28.63;30.91;;
61270;Laerm;47150;53.032;8.960;2022-09-23T03:53:59;29.80;28.63;30.87;;
61270;Laerm;47150;53.032;8.960;2022-09-23T03:56:24;29.79;28.55;30.87;;
61270;Laerm;47150;53.032;8.960;2022-09-23T03:58:49;29.77;28.41;30.93;;
61270;Laerm;47150;53.032;8.960;2022-09-23T04:01:15;29.75;28.35;30.93;;
61270;Laerm;47150;53.032;8.960;2022-09-23T04:03:40;29.74;28.53;30.90;;
61270;Laerm;47150;53.032;8.960;2022-09-23T04:06:06;29.72;28.34;31.02;;
61270;Laerm;47150;53.032;8.960;2022-09-23T04:08:32;29.68;28.41;30.78;;
61270;Laerm;47150;53.032;8.960;2022-09-23T04:11:02;29.66;28.32;31.01;;
61270;Laerm;47150;53.032;8.960;2022-09-23T04:13:29;29.66;28.43;30.71;;
61270;Laerm;47150;53.032;8.960;2022-09-23T04:15:55;29.66;28.57;30.75;;
61270;Laerm;47150;53.032;8.960;2022-09-23T04:18:21;29.69;28.56;30.75;;
61270;Laerm;47150;53.032;8.960;2022-09-23T04:20:47;29.69;28.49;30.75;;
61270;Laerm;47150;53.032;8.960;2022-09-23T04:23:12;29.66;28.27;30.95;;
61270;Laerm;47150;53.032;8.960;2022-09-23T04:25:48;29.62;28.35;30.67;;
61270;Laerm;47150;53.032;8.960;2022-09-23T04:28:13;29.60;28.14;30.75;;
61270;Laerm;47150;53.032;8.960;2022-09-23T04:30:40;29.57;28.31;30.92;;
61270;Laerm;47150;53.032;8.960;2022-09-23T04:33:09;29.53;28.49;30.51;;
61270;Laerm;47150;53.032;8.960;2022-09-23T04:35:36;29.54;28.29;30.64;;
61270;Laerm;47150;53.032;8.960;2022-09-23T04:38:04;29.53;28.21;30.77;;
61270;Laerm;47150;53.032;8.960;2022-09-23T04:40:29;29.52;28.42;30.69;;
61270;Laerm;47150;53.032;8.960;2022-09-23T04:42:55;29.51;27.96;30.48;;
61270;Laerm;47150;53.032;8.960;2022-09-23T04:45:20;29.48;28.41;30.62;;
61270;Laerm;47150;53.032;8.960;2022-09-23T04:47:46;29.47;27.88;30.60;;
61270;Laerm;47150;53.032;8.960;2022-09-23T04:50:11;29.45;28.24;30.40;;
61270;Laerm;47150;53.032;8.960;2022-09-23T04:52:37;29.44;28.40;30.53;;
61270;Laerm;47150;53.032;8.960;2022-09-23T04:55:02;29.45;28.24;30.76;;
61270;Laerm;47150;53.032;8.960;2022-09-23T04:57:28;29.46;28.30;30.53;;
61270;Laerm;47150;53.032;8.960;2022-09-23T04:59:54;29.46;28.08;30.71;;
61270;Laerm;47150;53.032;8.960;2022-09-23T05:02:21;29.45;28.27;30.56;;
61270;Laerm;47150;53.032;8.960;2022-09-23T05:04:46;29.44;28.11;30.50;;
61270;Laerm;47150;53.032;8.960;2022-09-23T05:07:12;29.42;28.19;30.77;;
61270;Laerm;47150;53.032;8.960;2022-09-23T05:09:37;29.41;28.25;30.65;;
61270;Laerm;47150;53.032;8.960;2022-09-23T05:12:03;29.40;28.07;30.57;;
61270;Laerm;47150;53.032;8.960;2022-09-23T05:14:29;29.41;28.14;30.58;;
61270;Laerm;47150;53.032;8.960;2022-09-23T05:16:54;29.40;28.37;30.53;;
61270;Laerm;47150;53.032;8.960;2022-09-23T05:19:20;29.35;28.12;30.40;;
61270;Laerm;47150;53.032;8.960;2022-09-23T05:21:46;29.33;28.21;30.55;;
61270;Laerm;47150;53.032;8.960;2022-09-23T05:24:11;29.32;28.10;30.49;;
61270;Laerm;47150;53.032;8.960;2022-09-23T05:26:37;29.31;27.96;30.32;;
61270;Laerm;47150;53.032;8.960;2022-09-23T05:29:03;29.30;28.04;30.28;;
61270;Laerm;47150;53.032;8.960;2022-09-23T05:31:29;29.27;28.13;30.39;;
61270;Laerm;47150;53.032;8.960;2022-09-23T05:33:58;29.28;27.82;30.39;;
61270;Laerm;47150;53.032;8.960;2022-09-23T05:36:27;29.28;28.02;30.46;;
61270;Laerm;47150;53.032;8.960;2022-09-23T05:38:53;29.26;28.12;30.42;;
61270;Laerm;47150;53.032;8.960;2022-09-23T05:41:22;29.28;27.93;30.33;;
61270;Laerm;47150;53.032;8.960;2022-09-23T05:43:49;29.28;28.15;30.28;;
61270;Laerm;47150;53.032;8.960;2022-09-23T05:46:24;29.27;27.86;30.43;;
61270;Laerm;47150;53.032;8.960;2022-09-23T05:48:52;29.29;28.06;30.29;;
61270;Laerm;47150;53.032;8.960;2022-09-23T05:51:22;29.29;28.01;30.49;;
61270;Laerm;47150;53.032;8.960;2022-09-23T05:53:50;29.29;28.20;30.48;;
61270;Laerm;47150;53.032;8.960;2022-09-23T05:56:20;29.30;28.10;30.23;;
61270;Laerm;47150;53.032;8.960;2022-09-23T05:58:52;29.32;28.15;30.43;;
61270;Laerm;47150;53.032;8.960;2022-09-23T06:01:21;29.35;27.86;30.60;;
61270;Laerm;47150;53.032;8.960;2022-09-23T06:03:53;29.40;28.21;30.66;;
61270;Laerm;47150;53.032;8.960;2022-09-23T06:06:26;29.44;28.31;30.50;;
61270;Laerm;47150;53.032;8.960;2022-09-23T06:08:52;29.48;28.14;30.89;;
61270;Laerm;47150;53.032;8.960;2022-09-23T06:11:18;29.49;28.09;30.70;;
61270;Laerm;47150;53.032;8.960;2022-09-23T06:13:46;29.50;28.41;30.63;;
61270;Laerm;47150;53.032;8.960;2022-09-23T06:16:14;29.49;28.17;30.58;;
61270;Laerm;47150;53.032;8.960;2022-09-23T06:18:42;29.49;28.30;30.50;;
61270;Laerm;47150;53.032;8.960;2022-09-23T06:21:14;29.48;28.35;30.77;;
61270;Laerm;47150;53.032;8.960;2022-09-23T06:23:41;29.47;28.19;30.57;;
61270;Laerm;47150;53.032;8.960;2022-09-23T06:26:10;29.47;28.30;30.62;;
61270;Laerm;47150;53.032;8.960;2022-09-23T06:28:38;29.49;28.10;30.57;;
61270;Laerm;47150;53.032;8.960;2022-09-23T06:31:08;29.52;28.32;30.64;;
61270;Laerm;47150;53.032;8.960;2022-09-23T06:33:35;29.56;27.97;30.80;;
61270;Laerm;47150;53.032;8.960;2022-09-23T06:36:04;29.63;28.48;30.72;;
61270;Laerm;47150;53.032;8.960;2022-09-23T06:38:30;29.69;28.57;30.72;;
61270;Laerm;47150;53.032;8.960;2022-09-23T06:40:58;29.81;28.70;31.02;;
61270;Laerm;47150;53.032;8.960;2022-09-23T06:43:25;29.98;28.82;31.11;;
61270;Laerm;47150;53.032;8.960;2022-09-23T06:45:59;30.17;29.02;31.31;;
61270;Laerm;47150;53.032;8.960;2022-09-23T06:48:26;30.28;29.04;31.36;;
61270;Laerm;47150;53.032;8.960;2022-09-23T06:50:53;30.40;28.99;31.49;;
61270;Laerm;47150;53.032;8.960;2022-09-23T06:53:20;30.48;29.35;31.70;;
61270;Laerm;47150;53.032;8.960;2022-09-23T06:55:58;30.63;29.45;31.86;;
61270;Laerm;47150;53.032;8.960;2022-09-23T06:58:25;30.76;29.45;31.87;;
61270;Laerm;47150;53.032;8.960;2022-09-23T07:00:51;30.87;29.33;31.93;;
61270;Laerm;47150;53.032;8.960;2022-09-23T07:03:18;30.97;29.69;32.02;;
61270;Laerm;47150;53.032;8.960;2022-09-23T07:05:43;31.09;29.75;32.22;;
61270;Laerm;47150;53.032;8.960;2022-09-23T07:08:08;31.20;30.07;32.32;;
61270;Laerm;47150;53.032;8.960;2022-09-23T07:10:35;31.29;29.99;32.41;;
61270;Laerm;47150;53.032;8.960;2022-09-23T07:13:05;31.49;30.23;32.61;;
61270;Laerm;47150;53.032;8.960;2022-09-23T07:15:30;31.71;30.36;32.80;;
61270;Laerm;47150;53.032;8.960;2022-09-23T07:17:56;31.77;30.64;32.99;;
61270;Laerm;47150;53.032;8.960;2022-09-23T07:20:22;31.89;30.72;33.08;;
61270;Laerm;47150;53.032;8.960;2022-09-23T07:22:51;31.92;30.77;32.99;;
61270;Laerm;47150;53.032;8.960;2022-09-23T07:25:20;32.06;30.74;33.19;;
61270;Laerm;47150;53.032;8.960;2022-09-23T07:27:47;31.98;30.78;33.08;;
61270;Laerm;47150;53.032;8.960;2022-09-23T07:30:13;31.96;30.66;33.19;;
61270;Laerm;47150;53.032;8.960;2022-09-23T07:32:40;31.99;30.90;33.06;;
61270;Laerm;47150;53.032;8.960;2022-09-23T07:35:07;32.07;30.93;33.16;;
61270;Laerm;47150;53.032;8.960;2022-09-23T07:37:33;32.13;30.83;33.48;;
61270;Laerm;47150;53.032;8.960;2022-09-23T07:39:58;32.22;31.11;33.36;;
61270;Laerm;47150;53.032;8.960;2022-09-23T07:42:23;32.38;31.17;33.48;;
61270;Laerm;47150;53.032;8.960;2022-09-23T07:44:49;32.27;30.99;33.31;;
61270;Laerm;47150;53.032;8.960;2022-09-23T07:47:14;32.53;31.37;33.69;;
61270;Laerm;47150;53.032;8.960;2022-09-23T07:49:41;32.77;31.63;33.82;;
61270;Laerm;47150;53.032;8.960;2022-09-23T07:52:07;32.95;31.80;34.08;;
61270;Laerm;47150;53.032;8.960;2022-09-23T07:54:33;33.18;32.03;34.27;;
61270;Laerm;47150;53.032;8.960;2022-09-23T07:56:59;33.29;32.00;34.52;;
61270;Laerm;47150;53.032;8.960;2022-09-23T07:59:24;33.43;31.97;34.61;;
61270;Laerm;47150;53.032;8.960;2022-09-23T08:01:52;33.65;32.37;34.80;;
61270;Laerm;47150;53.032;8.960;2022-09-23T08:04:25;33.83;32.72;35.03;;
61270;Laerm;47150;53.032;8.960;2022-09-23T08:06:59;34.18;33.03;35.31;;
61270;Laerm;47150;53.032;8.960;2022-09-23T08:09:29;34.46;33.01;35.67;;
61270;Laerm;47150;53.032;8.960;2022-09-23T08:11:56;34.74;33.40;35.91;;
61270;Laerm;47150;53.032;8.960;2022-09-23T08:14:22;34.75;33.59;35.85;;
61270;Laerm;47150;53.032;8.960;2022-09-23T08:16:48;34.84;33.42;36.02;;
61270;Laerm;47150;53.032;8.960;2022-09-23T08:19:15;34.84;33.59;36.09;;
61270;Laerm;47150;53.032;8.960;2022-09-23T08:21:41;34.88;33.50;36.05;;
61270;Laerm;47150;53.032;8.960;2022-09-23T08:24:17;35.05;33.70;36.36;;
61270;Laerm;47150;53.032;8.960;2022-09-23T08:26:45;35.11;33.91;36.25;;
61270;Laerm;47150;53.032;8.960;2022-09-23T08:29:14;35.15;33.97;36.27;;
61270;Laerm;47150;53.032;8.960;2022-09-23T08:31:40;35.26;33.96;36.34;;
61270;Laerm;47150;53.032;8.960;2022-09-23T08:34:06;35.31;34.07;36.64;;
61270;Laerm;47150;53.032;8.960;2022-09-23T08:36:33;35.39;34.17;36.47;;
61270;Laerm;47150;53.032;8.960;2022-09-23T08:38:59;35.43;34.22;36.62;;
61270;Laerm;47150;53.032;8.960;2022-09-23T08:44:20;35.44;34.14;36.57;;
61270;Laerm;47150;53.032;8.960;2022-09-23T08:47:31;35.43;34.11;36.75;;
61270;Laerm;47150;53.032;8.960;2022-09-23T08:50:21;35.48;34.20;36.65;;
61270;Laerm;47150;53.032;8.960;2022-09-23T08:52:57;35.51;34.26;36.88;;
61270;Laerm;47150;53.032;8.960;2022-09-23T08:55:38;35.51;34.24;36.71;;
61270;Laerm;47150;53.032;8.960;2022-09-23T09:01:46;35.57;34.08;36.87;;
61270;Laerm;47150;53.032;8.960;2022-09-23T09:06:52;35.62;34.12;36.73;;
61270;Laerm;47150;53.032;8.960;2022-09-23T09:09:50;35.67;34.38;37.02;;
61270;Laerm;47150;53.032;8.960;2022-09-23T09:15:26;35.74;34.56;36.99;;
61270;Laerm;47150;53.032;8.960;2022-09-23T09:18:13;35.81;34.53;37.03;;
61270;Laerm;47150;53.032;8.960;2022-09-23T09:23:53;35.90;34.52;37.14;;
61270;Laerm;47150;53.032;8.960;2022-09-23T09:26:38;35.95;34.59;37.23;;
61270;Laerm;47150;53.032;8.960;2022-09-23T09:29:16;36.02;34.55;37.15;;
61270;Laerm;47150;53.032;8.960;2022-09-23T09:31:49;36.13;34.69;37.26;;
61270;Laerm;47150;53.032;8.960;2022-09-23T09:34:37;36.11;34.89;37.41;;
61270;Laerm;47150;53.032;8.960;2022-09-23T09:37:19;36.24;35.04;37.51;;
61270;Laerm;47150;53.032;8.960;2022-09-23T09:39:47;36.60;34.98;37.89;;
61270;Laerm;47150;53.032;8.960;2022-09-23T09:42:26;36.83;35.51;37.93;;
61270;Laerm;47150;53.032;8.960;2022-09-23T09:45:02;36.95;35.60;38.01;;
61270;Laerm;47150;53.032;8.960;2022-09-23T09:48:01;37.12;35.83;38.29;;
61270;Laerm;47150;53.032;8.960;2022-09-23T09:50:51;37.33;36.01;38.50;;
61270;Laerm;47150;53.032;8.960;2022-09-23T09:53:28;37.43;36.21;38.47;;
61270;Laerm;47150;53.032;8.960;2022-09-23T09:56:10;37.61;36.22;38.83;;
61270;Laerm;47150;53.032;8.960;2022-09-23T09:58:43;37.62;35.97;38.89;;
61270;Laerm;47150;53.032;8.960;2022-09-23T10:01:20;37.68;36.35;38.94;;
61270;Laerm;47150;53.032;8.960;2022-09-23T10:03:46;37.89;36.61;38.96;;
61270;Laerm;47150;53.032;8.960;2022-09-23T10:09:17;38.01;36.73;39.15;;
61270;Laerm;47150;53.032;8.960;2022-09-23T10:12:21;38.03;36.70;39.17;;
61270;Laerm;47150;53.032;8.960;2022-09-23T10:14:56;38.06;36.68;39.32;;
61270;Laerm;47150;53.032;8.960;2022-09-23T10:17:29;38.06;36.87;39.36;;
61270;Laerm;47150;53.032;8.960;2022-09-23T10:20:00;38.05;36.92;39.33;;
61270;Laerm;47150;53.032;8.960;2022-09-23T10:22:32;38.06;36.46;39.18;;
61270;Laerm;47150;53.032;8.960;2022-09-23T10:25:18;38.05;36.60;39.32;;
61270;Laerm;47150;53.032;8.960;2022-09-23T10:27:44;38.05;36.54;39.24;;
61270;Laerm;47150;53.032;8.960;2022-09-23T10:30:26;38.06;36.54;39.23;;
61270;Laerm;47150;53.032;8.960;2022-09-23T10:32:54;38.06;36.69;39.23;;
61270;Laerm;47150;53.032;8.960;2022-09-23T10:35:25;38.07;36.71;39.33;;
61270;Laerm;47150;53.032;8.960;2022-09-23T10:37:57;38.07;36.78;39.49;;
61270;Laerm;47150;53.032;8.960;2022-09-23T10:43:26;38.08;36.75;39.31;;
61270;Laerm;47150;53.032;8.960;2022-09-23T10:46:22;38.08;36.71;39.30;;
61270;Laerm;47150;53.032;8.960;2022-09-23T10:49:37;38.07;36.69;39.19;;
61270;Laerm;47150;53.032;8.960;2022-09-23T10:52:39;38.08;36.66;39.46;;
61270;Laerm;47150;53.032;8.960;2022-09-23T11:07:39;38.08;36.69;39.32;;
61270;Laerm;47150;53.032;8.960;2022-09-23T11:10:43;38.07;36.65;39.40;;
61270;Laerm;47150;53.032;8.960;2022-09-23T11:19:18;38.08;36.67;39.49;;
61270;Laerm;47150;53.032;8.960;2022-09-23T11:24:41;38.07;36.63;39.40;;
61270;Laerm;47150;53.032;8.960;2022-09-23T11:30:19;38.06;36.69;39.17;;
61270;Laerm;47150;53.032;8.960;2022-09-23T11:35:35;38.07;36.67;39.29;;
61270;Laerm;47150;53.032;8.960;2022-09-23T11:38:16;38.07;36.83;39.46;;
61270;Laerm;47150;53.032;8.960;2022-09-23T11:40:48;38.06;36.80;39.19;;
61270;Laerm;47150;53.032;8.960;2022-09-23T11:43:27;38.05;36.70;39.31;;
61270;Laerm;47150;53.032;8.960;2022-09-23T11:46:41;38.04;36.65;39.30;;
61270;Laerm;47150;53.032;8.960;2022-09-23T11:49:19;38.04;36.65;39.37;;
61270;Laerm;47150;53.032;8.960;2022-09-23T11:52:12;38.00;36.48;39.28;;
61270;Laerm;47150;53.032;8.960;2022-09-23T11:55:00;38.01;36.55;39.22;;
61270;Laerm;47150;53.032;8.960;2022-09-23T11:57:48;38.01;36.47;39.41;;
61270;Laerm;47150;53.032;8.960;2022-09-23T12:00:22;37.99;36.53;39.28;;
61270;Laerm;47150;53.032;8.960;2022-09-23T12:05:29;37.96;36.50;39.32;;
61270;Laerm;47150;53.032;8.960;2022-09-23T12:08:31;37.93;36.70;39.10;;
61270;Laerm;47150;53.032;8.960;2022-09-23T12:11:34;37.91;36.66;39.16;;
61270;Laerm;47150;53.032;8.960;2022-09-23T12:19:44;37.92;36.33;39.05;;
61270;Laerm;47150;53.032;8.960;2022-09-23T12:27:55;37.88;36.37;39.32;;
61270;Laerm;47150;53.032;8.960;2022-09-23T12:30:29;37.87;36.56;39.11;;
61270;Laerm;47150;53.032;8.960;2022-09-23T12:33:27;37.92;36.28;39.17;;
61270;Laerm;47150;53.032;8.960;2022-09-23T12:46:41;37.93;36.39;39.28;;
61270;Laerm;47150;53.032;8.960;2022-09-23T12:54:36;37.92;36.55;39.59;;
61270;Laerm;47150;53.032;8.960;2022-09-23T12:57:08;37.87;36.64;39.28;;
61270;Laerm;47150;53.032;8.960;2022-09-23T13:02:29;37.94;36.68;39.27;;
61270;Laerm;47150;53.032;8.960;2022-09-23T13:08:01;37.97;36.54;39.90;;
61270;Laerm;47150;53.032;8.960;2022-09-23T13:10:38;37.99;36.64;39.28;;
61270;Laerm;47150;53.032;8.960;2022-09-23T13:13:18;38.00;36.21;39.15;;
61270;Laerm;47150;53.032;8.960;2022-09-23T13:15:45;38.01;36.80;39.37;;
61270;Laerm;47150;53.032;8.960;2022-09-23T13:19:04;38.00;36.41;39.27;;
61270;Laerm;47150;53.032;8.960;2022-09-23T13:24:35;37.99;36.54;39.14;;
61270;Laerm;47150;53.032;8.960;2022-09-23T13:29:43;38.00;36.61;39.29;;
61270;Laerm;47150;53.032;8.960;2022-09-23T13:32:19;38.02;36.73;39.30;;
61270;Laerm;47150;53.032;8.960;2022-09-23T13:35:15;38.02;36.77;39.12;;
61270;Laerm;47150;53.032;8.960;2022-09-23T13:37:48;38.02;36.77;39.29;;
61270;Laerm;47150;53.032;8.960;2022-09-23T13:40:20;38.02;36.73;39.17;;
61270;Laerm;47150;53.032;8.960;2022-09-23T13:42:54;38.01;36.67;39.30;;
61270;Laerm;47150;53.032;8.960;2022-09-23T13:45:24;38.01;36.64;39.30;;
61270;Laerm;47150;53.032;8.960;2022-09-23T13:47:54;38.01;36.68;39.21;;
61270;Laerm;47150;53.032;8.960;2022-09-23T13:50:24;38.01;36.52;39.46;;
61270;Laerm;47150;53.032;8.960;2022-09-23T13:53:00;38.01;36.89;39.21;;
61270;Laerm;47150;53.032;8.960;2022-09-23T13:55:32;38.00;36.43;39.36;;
61270;Laerm;47150;53.032;8.960;2022-09-23T13:58:19;38.00;36.47;39.62;;
61270;Laerm;47150;53.032;8.960;2022-09-23T14:00:47;37.99;36.62;39.23;;
61270;Laerm;47150;53.032;8.960;2022-09-23T14:03:17;38.01;36.58;39.17;;
61270;Laerm;47150;53.032;8.960;2022-09-23T14:05:47;38.01;36.53;39.22;;
61270;Laerm;47150;53.032;8.960;2022-09-23T14:08:13;38.00;36.53;39.20;;
61270;Laerm;47150;53.032;8.960;2022-09-23T14:10:39;38.00;36.78;39.30;;
61270;Laerm;47150;53.032;8.960;2022-09-23T14:13:24;38.00;36.61;39.37;;
61270;Laerm;47150;53.032;8.960;2022-09-23T14:15:55;37.98;36.68;39.43;;
61270;Laerm;47150;53.032;8.960;2022-09-23T14:18:34;37.96;36.60;39.24;;
61270;Laerm;47150;53.032;8.960;2022-09-23T14:21:00;37.93;36.32;39.08;;
61270;Laerm;47150;53.032;8.960;2022-09-23T14:23:26;37.94;36.69;39.12;;
61270;Laerm;47150;53.032;8.960;2022-09-23T14:25:53;37.92;36.75;38.98;;
61270;Laerm;47150;53.032;8.960;2022-09-23T14:28:22;37.88;36.53;39.26;;
61270;Laerm;47150;53.032;8.960;2022-09-23T14:30:55;37.82;36.50;39.08;;
61270;Laerm;47150;53.032;8.960;2022-09-23T14:33:28;37.80;36.37;39.01;;
61270;Laerm;47150;53.032;8.960;2022-09-23T14:36:16;37.82;36.11;39.51;;
61270;Laerm;47150;53.032;8.960;2022-09-23T14:39:05;37.82;36.63;39.08;;
61270;Laerm;47150;53.032;8.960;2022-09-23T14:41:42;37.81;36.65;38.99;;
61270;Laerm;47150;53.032;8.960;2022-09-23T14:44:22;37.80;36.48;39.18;;
61270;Laerm;47150;53.032;8.960;2022-09-23T14:46:57;37.78;36.25;38.88;;
61270;Laerm;47150;53.032;8.960;2022-09-23T14:49:24;37.72;36.44;38.92;;
61270;Laerm;47150;53.032;8.960;2022-09-23T14:51:54;37.63;36.26;38.80;;
61270;Laerm;47150;53.032;8.960;2022-09-23T14:57:29;37.55;36.27;38.95;;
61270;Laerm;47150;53.032;8.960;2022-09-23T15:00:06;37.59;36.14;38.74;;
61270;Laerm;47150;53.032;8.960;2022-09-23T15:02:40;37.59;36.27;38.91;;
61270;Laerm;47150;53.032;8.960;2022-09-23T15:05:19;37.57;36.31;38.79;;
61270;Laerm;47150;53.032;8.960;2022-09-23T15:07:51;37.53;36.19;38.75;;
61270;Laerm;47150;53.032;8.960;2022-09-23T15:10:29;37.41;36.10;38.59;;
61270;Laerm;47150;53.032;8.960;2022-09-23T15:13:07;36.88;35.28;38.48;;
61270;Laerm;47150;53.032;8.960;2022-09-23T15:15:33;35.56;32.52;37.22;;
61270;Laerm;47150;53.032;8.960;2022-09-23T15:18:06;34.14;32.20;36.03;;
61270;Laerm;47150;53.032;8.960;2022-09-23T15:20:35;32.36;30.68;35.61;;
61270;Laerm;47150;53.032;8.960;2022-09-23T15:23:01;34.26;30.85;36.21;;
61270;Laerm;47150;53.032;8.960;2022-09-23T15:25:34;35.12;33.21;36.35;;
61270;Laerm;47150;53.032;8.960;2022-09-23T15:30:38;35.12;33.64;36.50;;
61270;Laerm;47150;53.032;8.960;2022-09-23T15:33:04;34.99;33.74;36.15;;
61270;Laerm;47150;53.032;8.960;2022-09-23T15:35:31;34.86;33.60;36.15;;
61270;Laerm;47150;53.032;8.960;2022-09-23T15:37:59;34.80;33.48;36.14;;
61270;Laerm;47150;53.032;8.960;2022-09-23T15:40:35;34.93;33.59;36.16;;
61270;Laerm;47150;53.032;8.960;2022-09-23T15:43:19;34.61;33.15;35.92;;
61270;Laerm;47150;53.032;8.960;2022-09-23T15:46:04;34.59;33.05;35.97;;
61270;Laerm;47150;53.032;8.960;2022-09-23T15:48:37;34.33;32.74;36.04;;
61270;Laerm;47150;53.032;8.960;2022-09-23T15:51:06;34.41;33.16;35.78;;
61270;Laerm;47150;53.032;8.960;2022-09-23T15:53:34;34.76;33.14;35.95;;
61270;Laerm;47150;53.032;8.960;2022-09-23T15:56:00;34.85;33.52;36.16;;
61270;Laerm;47150;53.032;8.960;2022-09-23T15:58:26;34.69;33.04;36.16;;
61270;Laerm;47150;53.032;8.960;2022-09-23T16:00:54;34.75;33.43;36.02;;
61270;Laerm;47150;53.032;8.960;2022-09-23T16:03:22;34.68;33.26;36.36;;
61270;Laerm;47150;53.032;8.960;2022-09-23T16:05:54;34.42;32.96;36.00;;
61270;Laerm;47150;53.032;8.960;2022-09-23T16:08:22;33.82;31.06;35.74;;
61270;Laerm;47150;53.032;8.960;2022-09-23T16:10:49;33.48;31.21;35.06;;
61270;Laerm;47150;53.032;8.960;2022-09-23T16:13:15;33.29;31.56;35.15;;
61270;Laerm;47150;53.032;8.960;2022-09-23T16:15:41;32.61;31.08;34.52;;
61270;Laerm;47150;53.032;8.960;2022-09-23T16:18:09;32.56;30.87;34.71;;
61270;Laerm;47150;53.032;8.960;2022-09-23T16:20:41;33.93;32.07;35.32;;
61270;Laerm;47150;53.032;8.960;2022-09-23T16:23:24;33.94;32.65;35.27;;